Meteo Giornale » Osservazioni meteo Stati Uniti (USA) » Barstow-Daggett
ore: 13:50 - Osservazioni Meteo Barstow-Daggett
Lat. 34° 51' N Lon. 116° 47' W Alt. 587 metri s.l.m.
35 °C
Sereno
Temp. 24 Ore
23 °C
39 °C
Nord
9.3 Km/h
Dew point 7 °C
Umidità 17 %
Visibilità 10 Km
Il sole sorge alle ore 06:19
Il sole tramonta alle ore 19:15
| Data e Ora | Cielo e Fenomeni | T °C | DP °C | Um. % | Pres. hPa | Vis. km | Vento km/h | |
|---|---|---|---|---|---|---|---|---|
| Oggi h: 13:50 | Sereno | 35 | 7 | 17 | 1011 | 10 | N 9.3 | |
| Oggi h: 12:50 | Sereno | 34 | 8 | 20 | 1012 | 10 | SE 9.3 | |
| Oggi h: 11:50 | Sereno | 33 | 7 | 19 | 1013 | 10 | N 0 | |
| Oggi h: 10:50 | Sereno | 31 | 6 | 20 | 1013 | 10 | O/NO 11.1 | |
| Oggi h: 09:50 | Sereno | 30 | 7 | 23 | 1013 | 10 | NO 13 | |
| Oggi h: 08:50 | Sereno | 28 | 9 | 30 | 1013 | 10 | NO 20.3 | |
| Oggi h: 07:50 | Sereno | 26 | 8 | 31 | 1013 | 10 | O/NO 25.9 | |
| Oggi h: 06:50 | Sereno | 23 | 7 | 35 | 1012 | 10 | O 16.7 | |
| Oggi h: 05:50 | Sereno | 24 | 7 | 33 | 1012 | 10 | O 13 | |
| Oggi h: 04:50 | Sereno | 24 | 8 | 35 | 1011 | 10 | O 20.3 | |
| Oggi h: 03:50 | Sereno | 27 | 5 | 24 | 1011 | 10 | O 18.5 | |
| Oggi h: 02:50 | Sereno | 27 | 4 | 22 | 1011 | 10 | O/NO 29.6 | |
| Oggi h: 01:50 | Sereno | 28 | 4 | 21 | 1011 | 10 | O 29.6 | |
| Oggi h: 00:50 | Sereno | 28 | 6 | 24 | 1011 | 10 | O 24 | |
| Ieri h: 23:50 | Sereno | 29 | 6 | 23 | 1011 | 10 | O 25.9 | |
| Ieri h: 22:50 | Sereno | 30 | 5 | 20 | 1011 | 10 | O/NO 18.5 | |
| Ieri h: 21:50 | Sereno | 30 | 6 | 22 | 1011 | 10 | O 27.8 | |
| Ieri h: 20:50 | Sereno | 31 | 8 | 23 | 1010 | 10 | O 29.6 | |
| Ieri h: 19:50 | Sereno | 33 | 10 | 24 | 1009 | 10 | O 37 | |
| Ieri h: 18:50 | Sereno | 36 | 8 | 18 | 1009 | 10 | O/SO 27.8 | |
| Ieri h: 17:50 | Sereno | 37 | 7 | 15 | 1009 | 10 | O 29.6 | |
| Ieri h: 16:50 | Sereno | 38 | 6 | 14 | 1008 | 10 | O/SO 29.6 | |
| Ieri h: 15:50 | Sereno | 39 | 6 | 13 | 1009 | 10 | S 27.8 | |
| Ieri h: 14:50 | Poco Nuvoloso | 38 | 6 | 14 | 1010 | 10 | N/NO 18.5 | |



